sensor_id;sensor_type;location;lat;lon;timestamp;temperature;humidity
1155;DHT22;566;48.414;9.118;2022-07-23T00:00:17;19.30;96.20
1155;DHT22;566;48.414;9.118;2022-07-23T00:02:43;19.60;95.00
1155;DHT22;566;48.414;9.118;2022-07-23T00:05:10;19.60;95.60
1155;DHT22;566;48.414;9.118;2022-07-23T00:07:38;19.60;95.90
1155;DHT22;566;48.414;9.118;2022-07-23T00:10:05;19.70;95.90
1155;DHT22;566;48.414;9.118;2022-07-23T00:12:33;19.60;95.30
1155;DHT22;566;48.414;9.118;2022-07-23T00:14:59;19.70;96.00
1155;DHT22;566;48.414;9.118;2022-07-23T00:17:25;19.60;95.10
1155;DHT22;566;48.414;9.118;2022-07-23T00:19:50;19.70;94.60
1155;DHT22;566;48.414;9.118;2022-07-23T00:22:19;19.80;93.90
1155;DHT22;566;48.414;9.118;2022-07-23T00:24:45;20.00;91.70
1155;DHT22;566;48.414;9.118;2022-07-23T00:27:10;20.20;91.70
1155;DHT22;566;48.414;9.118;2022-07-23T00:29:36;20.10;94.10
1155;DHT22;566;48.414;9.118;2022-07-23T00:32:02;20.00;94.10
1155;DHT22;566;48.414;9.118;2022-07-23T00:34:27;20.00;92.40
1155;DHT22;566;48.414;9.118;2022-07-23T00:36:53;20.00;93.50
1155;DHT22;566;48.414;9.118;2022-07-23T00:39:22;20.10;91.20
1155;DHT22;566;48.414;9.118;2022-07-23T00:41:49;20.30;89.90
1155;DHT22;566;48.414;9.118;2022-07-23T00:44:19;20.50;88.30
1155;DHT22;566;48.414;9.118;2022-07-23T00:46:47;20.60;88.70
1155;DHT22;566;48.414;9.118;2022-07-23T00:49:13;20.90;86.00
1155;DHT22;566;48.414;9.118;2022-07-23T00:51:39;21.10;85.30
1155;DHT22;566;48.414;9.118;2022-07-23T00:54:07;21.20;82.80
1155;DHT22;566;48.414;9.118;2022-07-23T00:56:33;21.60;81.50
1155;DHT22;566;48.414;9.118;2022-07-23T00:59:00;21.80;80.40
1155;DHT22;566;48.414;9.118;2022-07-23T01:01:26;22.00;79.40
1155;DHT22;566;48.414;9.118;2022-07-23T01:03:55;22.10;79.00
1155;DHT22;566;48.414;9.118;2022-07-23T01:06:21;22.20;79.50
1155;DHT22;566;48.414;9.118;2022-07-23T01:08:47;22.40;77.90
1155;DHT22;566;48.414;9.118;2022-07-23T01:11:13;22.30;81.40
1155;DHT22;566;48.414;9.118;2022-07-23T01:13:45;22.10;82.60
1155;DHT22;566;48.414;9.118;2022-07-23T01:16:11;21.90;83.40
1155;DHT22;566;48.414;9.118;2022-07-23T01:18:37;21.70;85.30
1155;DHT22;566;48.414;9.118;2022-07-23T01:21:02;21.50;86.10
1155;DHT22;566;48.414;9.118;2022-07-23T01:23:28;21.40;87.50
1155;DHT22;566;48.414;9.118;2022-07-23T01:25:57;21.30;87.30
1155;DHT22;566;48.414;9.118;2022-07-23T01:28:23;21.20;84.60
1155;DHT22;566;48.414;9.118;2022-07-23T01:30:49;21.10;89.60
1155;DHT22;566;48.414;9.118;2022-07-23T01:33:14;20.70;91.70
1155;DHT22;566;48.414;9.118;2022-07-23T01:35:40;20.50;92.50
1155;DHT22;566;48.414;9.118;2022-07-23T01:38:06;20.30;92.60
1155;DHT22;566;48.414;9.118;2022-07-23T01:40:32;20.10;93.50
1155;DHT22;566;48.414;9.118;2022-07-23T01:42:57;20.00;92.60
1155;DHT22;566;48.414;9.118;2022-07-23T01:45:23;20.00;91.20
1155;DHT22;566;48.414;9.118;2022-07-23T01:47:49;20.10;90.70
1155;DHT22;566;48.414;9.118;2022-07-23T01:50:17;20.10;91.10
1155;DHT22;566;48.414;9.118;2022-07-23T01:52:43;20.20;89.40
1155;DHT22;566;48.414;9.118;2022-07-23T01:55:09;20.40;88.30
1155;DHT22;566;48.414;9.118;2022-07-23T01:57:35;20.40;88.40
1155;DHT22;566;48.414;9.118;2022-07-23T02:00:04;20.60;86.20
1155;DHT22;566;48.414;9.118;2022-07-23T02:02:30;20.80;85.40
1155;DHT22;566;48.414;9.118;2022-07-23T02:04:55;20.90;84.00
1155;DHT22;566;48.414;9.118;2022-07-23T02:07:24;21.10;82.40
1155;DHT22;566;48.414;9.118;2022-07-23T02:09:49;21.20;82.00
1155;DHT22;566;48.414;9.118;2022-07-23T02:12:17;21.30;80.80
1155;DHT22;566;48.414;9.118;2022-07-23T02:14:43;21.50;79.70
1155;DHT22;566;48.414;9.118;2022-07-23T02:17:09;21.60;79.40
1155;DHT22;566;48.414;9.118;2022-07-23T02:19:34;21.60;79.30
1155;DHT22;566;48.414;9.118;2022-07-23T02:22:00;21.70;79.40
1155;DHT22;566;48.414;9.118;2022-07-23T02:24:26;21.70;79.60
1155;DHT22;566;48.414;9.118;2022-07-23T02:26:51;21.60;80.30
1155;DHT22;566;48.414;9.118;2022-07-23T02:29:17;21.60;80.80
1155;DHT22;566;48.414;9.118;2022-07-23T02:31:43;21.50;81.20
1155;DHT22;566;48.414;9.118;2022-07-23T02:34:09;21.40;81.60
1155;DHT22;566;48.414;9.118;2022-07-23T02:36:37;21.40;82.50
1155;DHT22;566;48.414;9.118;2022-07-23T02:39:03;21.40;82.70
1155;DHT22;566;48.414;9.118;2022-07-23T02:41:28;21.30;82.90
1155;DHT22;566;48.414;9.118;2022-07-23T02:43:54;21.30;82.90
1155;DHT22;566;48.414;9.118;2022-07-23T02:46:20;21.20;83.20
1155;DHT22;566;48.414;9.118;2022-07-23T02:48:45;21.20;83.00
1155;DHT22;566;48.414;9.118;2022-07-23T02:51:11;21.20;83.20
1155;DHT22;566;48.414;9.118;2022-07-23T02:53:37;21.20;83.30
1155;DHT22;566;48.414;9.118;2022-07-23T02:56:03;21.20;84.00
1155;DHT22;566;48.414;9.118;2022-07-23T02:58:28;21.20;83.80
1155;DHT22;566;48.414;9.118;2022-07-23T03:00:54;21.00;85.60
1155;DHT22;566;48.414;9.118;2022-07-23T03:03:20;20.90;87.80
1155;DHT22;566;48.414;9.118;2022-07-23T03:05:46;20.80;87.80
1155;DHT22;566;48.414;9.118;2022-07-23T03:08:11;20.70;87.70
1155;DHT22;566;48.414;9.118;2022-07-23T03:10:40;20.70;87.20
1155;DHT22;566;48.414;9.118;2022-07-23T03:13:08;20.70;87.30
1155;DHT22;566;48.414;9.118;2022-07-23T03:15:34;20.60;87.10
1155;DHT22;566;48.414;9.118;2022-07-23T03:18:00;20.70;87.60
1155;DHT22;566;48.414;9.118;2022-07-23T03:20:25;20.70;87.40
1155;DHT22;566;48.414;9.118;2022-07-23T03:22:51;20.70;87.40
1155;DHT22;566;48.414;9.118;2022-07-23T03:25:20;20.60;87.80
1155;DHT22;566;48.414;9.118;2022-07-23T03:27:45;20.50;88.00
1155;DHT22;566;48.414;9.118;2022-07-23T03:30:11;20.30;89.50
1155;DHT22;566;48.414;9.118;2022-07-23T03:32:37;20.20;91.10
1155;DHT22;566;48.414;9.118;2022-07-23T03:35:03;20.00;92.00
1155;DHT22;566;48.414;9.118;2022-07-23T03:37:29;19.80;92.70
1155;DHT22;566;48.414;9.118;2022-07-23T03:39:55;19.60;93.20
1155;DHT22;566;48.414;9.118;2022-07-23T03:42:20;19.50;93.60
1155;DHT22;566;48.414;9.118;2022-07-23T03:44:46;19.30;94.50
1155;DHT22;566;48.414;9.118;2022-07-23T03:47:12;19.20;95.00
1155;DHT22;566;48.414;9.118;2022-07-23T03:49:37;19.10;95.30
1155;DHT22;566;48.414;9.118;2022-07-23T03:52:06;19.00;95.70
1155;DHT22;566;48.414;9.118;2022-07-23T03:54:31;18.90;95.70
1155;DHT22;566;48.414;9.118;2022-07-23T03:56:57;18.80;95.10
1155;DHT22;566;48.414;9.118;2022-07-23T03:59:23;18.80;95.00
1155;DHT22;566;48.414;9.118;2022-07-23T04:01:57;18.80;95.40
1155;DHT22;566;48.414;9.118;2022-07-23T04:04:24;18.80;95.20
1155;DHT22;566;48.414;9.118;2022-07-23T04:06:53;18.80;94.70
1155;DHT22;566;48.414;9.118;2022-07-23T04:09:18;18.90;94.80
1155;DHT22;566;48.414;9.118;2022-07-23T04:11:44;18.90;95.40
1155;DHT22;566;48.414;9.118;2022-07-23T04:14:12;18.90;96.10
1155;DHT22;566;48.414;9.118;2022-07-23T04:16:38;18.80;96.20
1155;DHT22;566;48.414;9.118;2022-07-23T04:19:08;18.70;96.50
1155;DHT22;566;48.414;9.118;2022-07-23T04:21:34;18.70;96.70
1155;DHT22;566;48.414;9.118;2022-07-23T04:24:03;18.60;96.70
1155;DHT22;566;48.414;9.118;2022-07-23T04:26:28;18.60;96.90
1155;DHT22;566;48.414;9.118;2022-07-23T04:28:54;18.60;96.70
1155;DHT22;566;48.414;9.118;2022-07-23T04:31:20;18.50;96.80
1155;DHT22;566;48.414;9.118;2022-07-23T04:33:45;18.50;96.80
1155;DHT22;566;48.414;9.118;2022-07-23T04:36:11;18.40;97.00
1155;DHT22;566;48.414;9.118;2022-07-23T04:38:36;18.40;97.00
1155;DHT22;566;48.414;9.118;2022-07-23T04:41:02;18.40;97.20
1155;DHT22;566;48.414;9.118;2022-07-23T04:43:28;18.50;97.30
1155;DHT22;566;48.414;9.118;2022-07-23T04:45:56;18.60;97.20
1155;DHT22;566;48.414;9.118;2022-07-23T04:48:22;18.80;97.00
1155;DHT22;566;48.414;9.118;2022-07-23T04:50:48;19.00;96.60
1155;DHT22;566;48.414;9.118;2022-07-23T04:53:13;19.10;96.30
1155;DHT22;566;48.414;9.118;2022-07-23T04:55:39;18.90;96.60
1155;DHT22;566;48.414;9.118;2022-07-23T04:58:05;18.80;96.80
1155;DHT22;566;48.414;9.118;2022-07-23T05:00:32;18.90;96.70
1155;DHT22;566;48.414;9.118;2022-07-23T05:02:58;19.00;96.10
1155;DHT22;566;48.414;9.118;2022-07-23T05:05:24;19.00;95.70
1155;DHT22;566;48.414;9.118;2022-07-23T05:07:49;19.10;95.50
1155;DHT22;566;48.414;9.118;2022-07-23T05:10:15;19.20;95.40
1155;DHT22;566;48.414;9.118;2022-07-23T05:12:41;19.40;95.90
1155;DHT22;566;48.414;9.118;2022-07-23T05:15:06;19.40;95.70
1155;DHT22;566;48.414;9.118;2022-07-23T05:17:32;19.30;96.10
1155;DHT22;566;48.414;9.118;2022-07-23T05:19:58;19.20;96.30
1155;DHT22;566;48.414;9.118;2022-07-23T05:22:23;19.20;96.30
1155;DHT22;566;48.414;9.118;2022-07-23T05:24:49;19.20;96.00
1155;DHT22;566;48.414;9.118;2022-07-23T05:27:17;19.30;95.90
1155;DHT22;566;48.414;9.118;2022-07-23T05:29:43;19.20;96.40
1155;DHT22;566;48.414;9.118;2022-07-23T05:32:09;19.20;96.70
1155;DHT22;566;48.414;9.118;2022-07-23T05:34:34;19.20;96.50
1155;DHT22;566;48.414;9.118;2022-07-23T05:37:00;19.20;96.40
1155;DHT22;566;48.414;9.118;2022-07-23T05:39:25;19.30;97.00
1155;DHT22;566;48.414;9.118;2022-07-23T05:41:51;19.30;96.50
1155;DHT22;566;48.414;9.118;2022-07-23T05:44:20;19.40;96.20
1155;DHT22;566;48.414;9.118;2022-07-23T05:46:48;19.50;95.50
1155;DHT22;566;48.414;9.118;2022-07-23T05:49:14;19.70;94.90
1155;DHT22;566;48.414;9.118;2022-07-23T05:51:40;19.90;94.50
1155;DHT22;566;48.414;9.118;2022-07-23T05:54:05;20.10;94.20
1155;DHT22;566;48.414;9.118;2022-07-23T05:56:31;20.30;93.40
1155;DHT22;566;48.414;9.118;2022-07-23T05:58:57;20.40;93.10
1155;DHT22;566;48.414;9.118;2022-07-23T06:01:22;20.70;92.90
1155;DHT22;566;48.414;9.118;2022-07-23T06:03:57;21.00;92.60
1155;DHT22;566;48.414;9.118;2022-07-23T06:06:22;21.20;92.10
1155;DHT22;566;48.414;9.118;2022-07-23T06:08:48;21.30;91.70
1155;DHT22;566;48.414;9.118;2022-07-23T06:11:14;21.50;91.80
1155;DHT22;566;48.414;9.118;2022-07-23T06:13:39;21.50;92.00
1155;DHT22;566;48.414;9.118;2022-07-23T06:16:05;21.70;91.00
1155;DHT22;566;48.414;9.118;2022-07-23T06:18:31;22.00;91.00
1155;DHT22;566;48.414;9.118;2022-07-23T06:20:56;22.20;88.70
1155;DHT22;566;48.414;9.118;2022-07-23T06:23:22;22.20;88.50
1155;DHT22;566;48.414;9.118;2022-07-23T06:25:47;22.10;89.50
1155;DHT22;566;48.414;9.118;2022-07-23T06:28:13;22.10;88.40
1155;DHT22;566;48.414;9.118;2022-07-23T06:30:39;22.30;87.60
1155;DHT22;566;48.414;9.118;2022-07-23T06:33:04;22.50;86.40
1155;DHT22;566;48.414;9.118;2022-07-23T06:35:30;22.70;86.30
1155;DHT22;566;48.414;9.118;2022-07-23T06:37:55;22.90;84.50
1155;DHT22;566;48.414;9.118;2022-07-23T06:40:27;23.10;83.80
1155;DHT22;566;48.414;9.118;2022-07-23T06:42:53;23.30;82.30
1155;DHT22;566;48.414;9.118;2022-07-23T06:45:18;23.40;82.00
1155;DHT22;566;48.414;9.118;2022-07-23T06:47:44;23.40;82.40
1155;DHT22;566;48.414;9.118;2022-07-23T06:50:19;23.50;81.70
1155;DHT22;566;48.414;9.118;2022-07-23T06:52:44;23.70;81.40
1155;DHT22;566;48.414;9.118;2022-07-23T06:55:10;24.10;80.10
1155;DHT22;566;48.414;9.118;2022-07-23T06:57:38;24.50;79.10
1155;DHT22;566;48.414;9.118;2022-07-23T07:00:07;24.90;78.20
1155;DHT22;566;48.414;9.118;2022-07-23T07:02:33;25.00;78.80
1155;DHT22;566;48.414;9.118;2022-07-23T07:04:59;25.00;80.10
1155;DHT22;566;48.414;9.118;2022-07-23T07:07:25;24.80;80.10
1155;DHT22;566;48.414;9.118;2022-07-23T07:09:50;24.50;81.20
1155;DHT22;566;48.414;9.118;2022-07-23T07:12:19;24.40;81.00
1155;DHT22;566;48.414;9.118;2022-07-23T07:14:45;24.40;81.20
1155;DHT22;566;48.414;9.118;2022-07-23T07:17:10;24.30;81.00
1155;DHT22;566;48.414;9.118;2022-07-23T07:19:36;24.50;81.20
1155;DHT22;566;48.414;9.118;2022-07-23T07:22:02;24.40;80.00
1155;DHT22;566;48.414;9.118;2022-07-23T07:24:31;24.30;80.80
1155;DHT22;566;48.414;9.118;2022-07-23T07:26:57;24.40;80.50
1155;DHT22;566;48.414;9.118;2022-07-23T07:29:22;24.40;80.40
1155;DHT22;566;48.414;9.118;2022-07-23T07:31:48;24.80;79.30
1155;DHT22;566;48.414;9.118;2022-07-23T07:34:13;25.10;78.20
1155;DHT22;566;48.414;9.118;2022-07-23T07:36:41;25.10;78.40
1155;DHT22;566;48.414;9.118;2022-07-23T07:39:08;25.30;78.20
1155;DHT22;566;48.414;9.118;2022-07-23T07:41:36;26.00;76.30
1155;DHT22;566;48.414;9.118;2022-07-23T07:44:01;26.70;74.40
1155;DHT22;566;48.414;9.118;2022-07-23T07:46:27;26.70;73.40
1155;DHT22;566;48.414;9.118;2022-07-23T07:48:53;26.80;72.80
1155;DHT22;566;48.414;9.118;2022-07-23T07:51:19;26.70;72.80
1155;DHT22;566;48.414;9.118;2022-07-23T07:53:44;26.80;73.40
1155;DHT22;566;48.414;9.118;2022-07-23T07:56:10;27.20;73.20
1155;DHT22;566;48.414;9.118;2022-07-23T07:58:36;27.50;72.60
1155;DHT22;566;48.414;9.118;2022-07-23T08:01:01;27.70;71.10
1155;DHT22;566;48.414;9.118;2022-07-23T08:03:28;27.60;71.70
1155;DHT22;566;48.414;9.118;2022-07-23T08:05:53;27.40;71.70
1155;DHT22;566;48.414;9.118;2022-07-23T08:08:19;26.90;72.40
1155;DHT22;566;48.414;9.118;2022-07-23T08:10:45;26.50;73.20
1155;DHT22;566;48.414;9.118;2022-07-23T08:13:14;26.30;74.10
1155;DHT22;566;48.414;9.118;2022-07-23T08:15:41;25.80;75.60
1155;DHT22;566;48.414;9.118;2022-07-23T08:18:07;25.90;75.40
1155;DHT22;566;48.414;9.118;2022-07-23T08:20:32;25.70;75.40
1155;DHT22;566;48.414;9.118;2022-07-23T08:23:02;25.70;75.50
1155;DHT22;566;48.414;9.118;2022-07-23T08:25:31;25.90;75.20
1155;DHT22;566;48.414;9.118;2022-07-23T08:27:59;25.60;75.10
1155;DHT22;566;48.414;9.118;2022-07-23T08:30:25;25.90;74.90
1155;DHT22;566;48.414;9.118;2022-07-23T08:33:02;26.60;73.40
1155;DHT22;566;48.414;9.118;2022-07-23T08:35:33;26.80;73.20
1155;DHT22;566;48.414;9.118;2022-07-23T08:38:02;26.80;73.30
1155;DHT22;566;48.414;9.118;2022-07-23T08:40:30;26.80;73.20
1155;DHT22;566;48.414;9.118;2022-07-23T08:42:56;26.70;72.50
1155;DHT22;566;48.414;9.118;2022-07-23T08:45:23;26.80;73.80
1155;DHT22;566;48.414;9.118;2022-07-23T08:47:57;26.70;72.70
1155;DHT22;566;48.414;9.118;2022-07-23T08:50:24;26.40;73.50
1155;DHT22;566;48.414;9.118;2022-07-23T08:52:52;26.50;73.50
1155;DHT22;566;48.414;9.118;2022-07-23T08:55:20;26.80;73.70
1155;DHT22;566;48.414;9.118;2022-07-23T08:57:51;27.00;72.80
1155;DHT22;566;48.414;9.118;2022-07-23T09:00:19;27.40;72.10
1155;DHT22;566;48.414;9.118;2022-07-23T09:02:48;27.90;71.20
1155;DHT22;566;48.414;9.118;2022-07-23T09:05:15;28.70;70.20
1155;DHT22;566;48.414;9.118;2022-07-23T09:08:13;28.60;69.30
1155;DHT22;566;48.414;9.118;2022-07-23T09:10:59;29.00;68.80
1155;DHT22;566;48.414;9.118;2022-07-23T09:15:54;30.20;66.50
1155;DHT22;566;48.414;9.118;2022-07-23T09:18:28;30.70;65.50
1155;DHT22;566;48.414;9.118;2022-07-23T09:21:09;30.50;65.00
1155;DHT22;566;48.414;9.118;2022-07-23T09:23:46;30.00;65.60
1155;DHT22;566;48.414;9.118;2022-07-23T09:26:34;30.00;67.70
1155;DHT22;566;48.414;9.118;2022-07-23T09:29:04;30.20;67.60
1155;DHT22;566;48.414;9.118;2022-07-23T09:31:50;30.30;65.50
1155;DHT22;566;48.414;9.118;2022-07-23T09:34:32;29.60;67.40
1155;DHT22;566;48.414;9.118;2022-07-23T09:37:18;29.30;68.40
1155;DHT22;566;48.414;9.118;2022-07-23T09:39:46;29.00;69.60
1155;DHT22;566;48.414;9.118;2022-07-23T09:42:23;28.90;69.00
1155;DHT22;566;48.414;9.118;2022-07-23T09:44:53;27.80;70.90
1155;DHT22;566;48.414;9.118;2022-07-23T09:47:21;27.30;73.30
1155;DHT22;566;48.414;9.118;2022-07-23T09:50:01;27.30;73.10
1155;DHT22;566;48.414;9.118;2022-07-23T09:52:32;28.00;72.40
1155;DHT22;566;48.414;9.118;2022-07-23T09:54:59;28.80;69.50
1155;DHT22;566;48.414;9.118;2022-07-23T09:57:26;28.80;70.70
1155;DHT22;566;48.414;9.118;2022-07-23T09:59:53;29.00;69.20
1155;DHT22;566;48.414;9.118;2022-07-23T10:02:22;29.10;70.70
1155;DHT22;566;48.414;9.118;2022-07-23T10:04:48;29.20;68.20
1155;DHT22;566;48.414;9.118;2022-07-23T10:07:14;29.40;69.30
1155;DHT22;566;48.414;9.118;2022-07-23T10:09:42;30.00;66.60
1155;DHT22;566;48.414;9.118;2022-07-23T10:12:14;31.30;64.60
1155;DHT22;566;48.414;9.118;2022-07-23T10:14:40;32.20;62.20
1155;DHT22;566;48.414;9.118;2022-07-23T10:17:07;32.60;61.50
1155;DHT22;566;48.414;9.118;2022-07-23T10:19:33;32.80;60.60
1155;DHT22;566;48.414;9.118;2022-07-23T10:22:04;32.40;61.60
1155;DHT22;566;48.414;9.118;2022-07-23T10:27:58;32.80;62.20
1155;DHT22;566;48.414;9.118;2022-07-23T10:30:07;31.80;61.90
1155;DHT22;566;48.414;9.118;2022-07-23T10:35:43;30.30;65.20
1155;DHT22;566;48.414;9.118;2022-07-23T10:41:03;29.70;67.10
1155;DHT22;566;48.414;9.118;2022-07-23T10:43:30;30.40;66.00
1155;DHT22;566;48.414;9.118;2022-07-23T10:46:23;31.30;64.50
1155;DHT22;566;48.414;9.118;2022-07-23T10:49:24;30.90;66.10
1155;DHT22;566;48.414;9.118;2022-07-23T10:52:16;30.80;64.30
1155;DHT22;566;48.414;9.118;2022-07-23T10:54:51;30.00;66.30
1155;DHT22;566;48.414;9.118;2022-07-23T10:57:23;29.40;68.10
1155;DHT22;566;48.414;9.118;2022-07-23T11:02:41;28.90;69.50
1155;DHT22;566;48.414;9.118;2022-07-23T11:05:16;28.40;69.30
1155;DHT22;566;48.414;9.118;2022-07-23T11:08:14;28.30;69.80
1155;DHT22;566;48.414;9.118;2022-07-23T11:10:44;28.10;71.10
1155;DHT22;566;48.414;9.118;2022-07-23T11:13:40;28.00;71.50
1155;DHT22;566;48.414;9.118;2022-07-23T11:16:17;27.80;71.60
1155;DHT22;566;48.414;9.118;2022-07-23T11:31:54;27.30;70.00
1155;DHT22;566;48.414;9.118;2022-07-23T11:37:06;28.20;68.00
1155;DHT22;566;48.414;9.118;2022-07-23T11:39:33;28.80;67.90
1155;DHT22;566;48.414;9.118;2022-07-23T11:42:00;29.60;67.40
1155;DHT22;566;48.414;9.118;2022-07-23T11:44:27;29.70;65.30
1155;DHT22;566;48.414;9.118;2022-07-23T11:47:42;30.80;64.50
1155;DHT22;566;48.414;9.118;2022-07-23T11:49:58;31.50;62.50
1155;DHT22;566;48.414;9.118;2022-07-23T11:52:29;31.10;62.80
1155;DHT22;566;48.414;9.118;2022-07-23T11:55:00;30.60;64.20
1155;DHT22;566;48.414;9.118;2022-07-23T11:57:31;29.90;65.30
1155;DHT22;566;48.414;9.118;2022-07-23T12:00:22;29.30;66.10
1155;DHT22;566;48.414;9.118;2022-07-23T12:02:50;28.60;66.30
1155;DHT22;566;48.414;9.118;2022-07-23T12:05:22;28.10;67.60
1155;DHT22;566;48.414;9.118;2022-07-23T12:07:53;28.00;68.30
1155;DHT22;566;48.414;9.118;2022-07-23T12:10:24;27.80;68.90
1155;DHT22;566;48.414;9.118;2022-07-23T12:12:56;27.60;69.20
1155;DHT22;566;48.414;9.118;2022-07-23T12:15:27;27.40;69.30
1155;DHT22;566;48.414;9.118;2022-07-23T12:17:56;27.30;70.00
1155;DHT22;566;48.414;9.118;2022-07-23T12:20:24;26.90;70.90
1155;DHT22;566;48.414;9.118;2022-07-23T12:23:01;26.80;71.10
1155;DHT22;566;48.414;9.118;2022-07-23T12:25:32;26.60;71.40
1155;DHT22;566;48.414;9.118;2022-07-23T12:30:43;27.30;70.40
1155;DHT22;566;48.414;9.118;2022-07-23T12:35:49;28.10;69.80
1155;DHT22;566;48.414;9.118;2022-07-23T12:38:19;28.80;67.00
1155;DHT22;566;48.414;9.118;2022-07-23T12:40:56;29.50;65.50
1155;DHT22;566;48.414;9.118;2022-07-23T12:43:32;30.20;64.10
1155;DHT22;566;48.414;9.118;2022-07-23T12:48:50;31.20;61.40
1155;DHT22;566;48.414;9.118;2022-07-23T12:51:18;31.50;61.30
1155;DHT22;566;48.414;9.118;2022-07-23T12:53:49;31.60;61.60
1155;DHT22;566;48.414;9.118;2022-07-23T12:56:38;31.40;61.60
1155;DHT22;566;48.414;9.118;2022-07-23T12:59:11;31.20;62.10
1155;DHT22;566;48.414;9.118;2022-07-23T13:01:41;30.80;62.20
1155;DHT22;566;48.414;9.118;2022-07-23T13:04:12;30.10;62.20
1155;DHT22;566;48.414;9.118;2022-07-23T13:06:41;29.70;63.30
1155;DHT22;566;48.414;9.118;2022-07-23T13:09:09;30.10;62.80
1155;DHT22;566;48.414;9.118;2022-07-23T13:11:36;30.00;63.00
1155;DHT22;566;48.414;9.118;2022-07-23T13:14:02;30.20;61.60
1155;DHT22;566;48.414;9.118;2022-07-23T13:16:29;29.60;63.40
1155;DHT22;566;48.414;9.118;2022-07-23T13:18:56;29.60;64.10
1155;DHT22;566;48.414;9.118;2022-07-23T13:21:22;29.60;64.10
1155;DHT22;566;48.414;9.118;2022-07-23T13:23:48;29.70;63.40
1155;DHT22;566;48.414;9.118;2022-07-23T13:26:18;29.70;63.30
1155;DHT22;566;48.414;9.118;2022-07-23T13:28:44;29.40;64.00
1155;DHT22;566;48.414;9.118;2022-07-23T13:31:11;29.10;63.80
1155;DHT22;566;48.414;9.118;2022-07-23T13:33:38;29.00;64.90
1155;DHT22;566;48.414;9.118;2022-07-23T13:36:07;29.30;64.70
1155;DHT22;566;48.414;9.118;2022-07-23T13:38:32;29.20;63.80
1155;DHT22;566;48.414;9.118;2022-07-23T13:40:58;29.30;64.20
1155;DHT22;566;48.414;9.118;2022-07-23T13:43:25;29.70;63.30
1155;DHT22;566;48.414;9.118;2022-07-23T13:45:52;29.90;62.90
1155;DHT22;566;48.414;9.118;2022-07-23T13:48:21;29.80;63.90
1155;DHT22;566;48.414;9.118;2022-07-23T13:50:48;29.90;63.00
1155;DHT22;566;48.414;9.118;2022-07-23T13:53:17;29.50;63.80
1155;DHT22;566;48.414;9.118;2022-07-23T13:55:43;29.20;64.30
1155;DHT22;566;48.414;9.118;2022-07-23T13:58:09;29.30;65.30
1155;DHT22;566;48.414;9.118;2022-07-23T14:00:38;29.80;64.70
1155;DHT22;566;48.414;9.118;2022-07-23T14:03:04;30.80;63.30
1155;DHT22;566;48.414;9.118;2022-07-23T14:05:30;31.20;61.10
1155;DHT22;566;48.414;9.118;2022-07-23T14:07:56;31.20;60.60
1155;DHT22;566;48.414;9.118;2022-07-23T14:10:23;31.30;61.30
1155;DHT22;566;48.414;9.118;2022-07-23T14:12:52;31.80;59.60
1155;DHT22;566;48.414;9.118;2022-07-23T14:15:20;31.80;60.20
1155;DHT22;566;48.414;9.118;2022-07-23T14:17:46;33.00;58.50
1155;DHT22;566;48.414;9.118;2022-07-23T14:20:15;34.10;56.10
1155;DHT22;566;48.414;9.118;2022-07-23T14:22:41;34.90;55.00
1155;DHT22;566;48.414;9.118;2022-07-23T14:25:08;34.50;54.60
1155;DHT22;566;48.414;9.118;2022-07-23T14:27:35;33.60;57.00
1155;DHT22;566;48.414;9.118;2022-07-23T14:30:03;32.80;58.50
1155;DHT22;566;48.414;9.118;2022-07-23T14:32:29;31.90;59.20
1155;DHT22;566;48.414;9.118;2022-07-23T14:34:55;32.00;59.10
1155;DHT22;566;48.414;9.118;2022-07-23T14:37:20;32.40;59.00
1155;DHT22;566;48.414;9.118;2022-07-23T14:39:47;32.70;57.90
1155;DHT22;566;48.414;9.118;2022-07-23T14:42:13;32.90;57.30
1155;DHT22;566;48.414;9.118;2022-07-23T14:44:39;32.90;57.00
1155;DHT22;566;48.414;9.118;2022-07-23T14:47:05;33.40;58.10
1155;DHT22;566;48.414;9.118;2022-07-23T14:49:32;33.60;56.90
1155;DHT22;566;48.414;9.118;2022-07-23T14:52:01;33.50;57.30
1155;DHT22;566;48.414;9.118;2022-07-23T14:54:27;32.90;57.70
1155;DHT22;566;48.414;9.118;2022-07-23T14:57:02;32.90;57.60
1155;DHT22;566;48.414;9.118;2022-07-23T14:59:28;33.20;56.70
1155;DHT22;566;48.414;9.118;2022-07-23T15:01:56;33.90;56.20
1155;DHT22;566;48.414;9.118;2022-07-23T15:04:21;34.70;55.00
1155;DHT22;566;48.414;9.118;2022-07-23T15:06:47;35.10;53.90
1155;DHT22;566;48.414;9.118;2022-07-23T15:09:13;34.30;54.40
1155;DHT22;566;48.414;9.118;2022-07-23T15:11:39;34.20;55.60
1155;DHT22;566;48.414;9.118;2022-07-23T15:14:05;34.60;54.90
1155;DHT22;566;48.414;9.118;2022-07-23T15:16:32;35.40;53.10
1155;DHT22;566;48.414;9.118;2022-07-23T15:18:58;36.20;51.40
1155;DHT22;566;48.414;9.118;2022-07-23T15:21:23;35.90;51.60
1155;DHT22;566;48.414;9.118;2022-07-23T15:23:49;35.40;52.30
1155;DHT22;566;48.414;9.118;2022-07-23T15:26:15;35.40;53.30
1155;DHT22;566;48.414;9.118;2022-07-23T15:28:44;36.00;51.20
1155;DHT22;566;48.414;9.118;2022-07-23T15:31:09;36.30;51.10
1155;DHT22;566;48.414;9.118;2022-07-23T15:33:36;36.30;50.70
1155;DHT22;566;48.414;9.118;2022-07-23T15:36:02;36.20;51.10
1155;DHT22;566;48.414;9.118;2022-07-23T15:38:28;36.10;50.70
1155;DHT22;566;48.414;9.118;2022-07-23T15:40:54;36.10;50.60
1155;DHT22;566;48.414;9.118;2022-07-23T15:43:21;35.50;52.90
1155;DHT22;566;48.414;9.118;2022-07-23T15:45:48;35.80;51.20
1155;DHT22;566;48.414;9.118;2022-07-23T15:48:13;34.70;52.50
1155;DHT22;566;48.414;9.118;2022-07-23T15:50:42;34.70;52.90
1155;DHT22;566;48.414;9.118;2022-07-23T15:53:08;34.30;53.40
1155;DHT22;566;48.414;9.118;2022-07-23T15:55:34;34.40;53.70
1155;DHT22;566;48.414;9.118;2022-07-23T15:58:03;35.10;52.50
1155;DHT22;566;48.414;9.118;2022-07-23T16:00:29;34.70;53.60
1155;DHT22;566;48.414;9.118;2022-07-23T16:02:55;34.70;53.40
1155;DHT22;566;48.414;9.118;2022-07-23T16:05:23;33.60;53.90
1155;DHT22;566;48.414;9.118;2022-07-23T16:07:49;32.70;56.00
1155;DHT22;566;48.414;9.118;2022-07-23T16:10:14;32.00;56.50
1155;DHT22;566;48.414;9.118;2022-07-23T16:12:43;31.60;58.30
1155;DHT22;566;48.414;9.118;2022-07-23T16:15:12;32.50;57.10
1155;DHT22;566;48.414;9.118;2022-07-23T16:17:47;33.60;54.80
1155;DHT22;566;48.414;9.118;2022-07-23T16:20:13;34.90;53.80
1155;DHT22;566;48.414;9.118;2022-07-23T16:22:38;36.00;51.80
1155;DHT22;566;48.414;9.118;2022-07-23T16:25:05;36.10;51.00
1155;DHT22;566;48.414;9.118;2022-07-23T16:27:32;35.20;51.00
1155;DHT22;566;48.414;9.118;2022-07-23T16:29:58;33.60;54.30
1155;DHT22;566;48.414;9.118;2022-07-23T16:32:24;32.70;55.00
1155;DHT22;566;48.414;9.118;2022-07-23T16:34:52;31.20;58.00
1155;DHT22;566;48.414;9.118;2022-07-23T16:37:18;30.70;59.80
1155;DHT22;566;48.414;9.118;2022-07-23T16:39:43;30.00;61.00
1155;DHT22;566;48.414;9.118;2022-07-23T16:42:09;29.60;62.10
1155;DHT22;566;48.414;9.118;2022-07-23T16:44:35;30.00;61.80
1155;DHT22;566;48.414;9.118;2022-07-23T16:47:01;31.70;59.60
1155;DHT22;566;48.414;9.118;2022-07-23T16:49:27;33.30;57.10
1155;DHT22;566;48.414;9.118;2022-07-23T16:51:52;34.30;53.90
1155;DHT22;566;48.414;9.118;2022-07-23T16:54:18;33.90;54.00
1155;DHT22;566;48.414;9.118;2022-07-23T16:56:45;32.70;56.00
1155;DHT22;566;48.414;9.118;2022-07-23T16:59:11;31.60;57.90